sensor_id;sensor_type;location;lat;lon;timestamp;temperature;humidity
25937;DHT22;13733;51.178;4.450;2023-10-31T00:02:16;11.70;99.90
25937;DHT22;13733;51.178;4.450;2023-10-31T00:04:41;11.70;99.90
25937;DHT22;13733;51.178;4.450;2023-10-31T00:07:07;11.60;99.90
25937;DHT22;13733;51.178;4.450;2023-10-31T00:09:33;11.60;99.90
25937;DHT22;13733;51.178;4.450;2023-10-31T00:11:59;11.60;99.90
25937;DHT22;13733;51.178;4.450;2023-10-31T00:14:25;11.50;99.90
25937;DHT22;13733;51.178;4.450;2023-10-31T00:16:51;11.60;99.90
25937;DHT22;13733;51.178;4.450;2023-10-31T00:19:17;11.70;99.90
25937;DHT22;13733;51.178;4.450;2023-10-31T00:21:42;11.60;99.90
25937;DHT22;13733;51.178;4.450;2023-10-31T00:24:08;11.70;99.90
25937;DHT22;13733;51.178;4.450;2023-10-31T00:26:34;11.70;99.90
25937;DHT22;13733;51.178;4.450;2023-10-31T00:29:00;11.60;99.90
25937;DHT22;13733;51.178;4.450;2023-10-31T00:31:25;11.70;99.90
25937;DHT22;13733;51.178;4.450;2023-10-31T00:33:51;11.80;99.90
25937;DHT22;13733;51.178;4.450;2023-10-31T00:36:17;11.80;99.90
25937;DHT22;13733;51.178;4.450;2023-10-31T00:38:42;11.80;99.90
25937;DHT22;13733;51.178;4.450;2023-10-31T00:41:08;11.70;99.90
25937;DHT22;13733;51.178;4.450;2023-10-31T00:43:34;11.60;99.90
25937;DHT22;13733;51.178;4.450;2023-10-31T00:46:03;11.60;99.90
25937;DHT22;13733;51.178;4.450;2023-10-31T00:48:29;11.80;99.90
25937;DHT22;13733;51.178;4.450;2023-10-31T00:50:54;11.70;99.90
25937;DHT22;13733;51.178;4.450;2023-10-31T00:53:20;11.60;99.90
25937;DHT22;13733;51.178;4.450;2023-10-31T00:55:46;11.50;99.90
25937;DHT22;13733;51.178;4.450;2023-10-31T00:58:12;11.60;99.90
25937;DHT22;13733;51.178;4.450;2023-10-31T01:00:38;11.50;99.90
25937;DHT22;13733;51.178;4.450;2023-10-31T01:03:04;11.50;99.90
25937;DHT22;13733;51.178;4.450;2023-10-31T01:05:30;11.60;99.90
25937;DHT22;13733;51.178;4.450;2023-10-31T01:07:55;11.70;99.90
25937;DHT22;13733;51.178;4.450;2023-10-31T01:10:21;11.60;99.90
25937;DHT22;13733;51.178;4.450;2023-10-31T01:12:48;11.50;99.90
25937;DHT22;13733;51.178;4.450;2023-10-31T01:15:13;11.40;99.90
25937;DHT22;13733;51.178;4.450;2023-10-31T01:17:39;11.40;99.90
25937;DHT22;13733;51.178;4.450;2023-10-31T01:20:06;11.40;99.90
25937;DHT22;13733;51.178;4.450;2023-10-31T01:22:32;11.50;99.90
25937;DHT22;13733;51.178;4.450;2023-10-31T01:24:57;11.50;99.90
25937;DHT22;13733;51.178;4.450;2023-10-31T01:27:23;11.60;99.90
25937;DHT22;13733;51.178;4.450;2023-10-31T01:29:49;11.70;99.90
25937;DHT22;13733;51.178;4.450;2023-10-31T01:32:15;11.80;99.90
25937;DHT22;13733;51.178;4.450;2023-10-31T01:34:41;12.00;99.90
25937;DHT22;13733;51.178;4.450;2023-10-31T01:37:06;11.90;99.90
25937;DHT22;13733;51.178;4.450;2023-10-31T01:39:32;11.80;99.90
25937;DHT22;13733;51.178;4.450;2023-10-31T01:41:58;11.80;99.90
25937;DHT22;13733;51.178;4.450;2023-10-31T01:44:24;11.80;99.90
25937;DHT22;13733;51.178;4.450;2023-10-31T01:46:51;11.90;99.90
25937;DHT22;13733;51.178;4.450;2023-10-31T01:49:16;11.90;99.90
25937;DHT22;13733;51.178;4.450;2023-10-31T01:51:42;11.90;99.90
25937;DHT22;13733;51.178;4.450;2023-10-31T01:54:10;11.80;99.90
25937;DHT22;13733;51.178;4.450;2023-10-31T01:56:37;11.80;99.90
25937;DHT22;13733;51.178;4.450;2023-10-31T01:59:05;11.90;99.90
25937;DHT22;13733;51.178;4.450;2023-10-31T02:01:33;11.90;99.90
25937;DHT22;13733;51.178;4.450;2023-10-31T02:04:01;11.90;99.90
25937;DHT22;13733;51.178;4.450;2023-10-31T02:06:28;11.90;99.90
25937;DHT22;13733;51.178;4.450;2023-10-31T02:08:56;11.90;99.90
25937;DHT22;13733;51.178;4.450;2023-10-31T02:11:22;11.90;99.90
25937;DHT22;13733;51.178;4.450;2023-10-31T02:13:48;11.90;99.90
25937;DHT22;13733;51.178;4.450;2023-10-31T02:16:13;11.80;99.90
25937;DHT22;13733;51.178;4.450;2023-10-31T02:18:39;11.80;99.90
25937;DHT22;13733;51.178;4.450;2023-10-31T02:21:05;11.80;99.90
25937;DHT22;13733;51.178;4.450;2023-10-31T02:23:30;11.80;99.90
25937;DHT22;13733;51.178;4.450;2023-10-31T02:25:57;11.80;99.90
25937;DHT22;13733;51.178;4.450;2023-10-31T02:28:22;11.80;99.90
25937;DHT22;13733;51.178;4.450;2023-10-31T02:30:53;11.70;99.90
25937;DHT22;13733;51.178;4.450;2023-10-31T02:33:20;11.90;99.90
25937;DHT22;13733;51.178;4.450;2023-10-31T02:35:46;12.00;99.90
25937;DHT22;13733;51.178;4.450;2023-10-31T02:38:12;11.90;99.90
25937;DHT22;13733;51.178;4.450;2023-10-31T02:40:38;11.90;99.90
25937;DHT22;13733;51.178;4.450;2023-10-31T02:43:04;11.80;99.90
25937;DHT22;13733;51.178;4.450;2023-10-31T02:45:30;11.80;99.90
25937;DHT22;13733;51.178;4.450;2023-10-31T02:47:55;11.80;99.90
25937;DHT22;13733;51.178;4.450;2023-10-31T02:50:21;11.80;99.90
25937;DHT22;13733;51.178;4.450;2023-10-31T02:52:47;11.70;99.90
25937;DHT22;13733;51.178;4.450;2023-10-31T02:55:13;11.70;99.90
25937;DHT22;13733;51.178;4.450;2023-10-31T02:57:39;11.60;99.90
25937;DHT22;13733;51.178;4.450;2023-10-31T03:00:06;11.60;99.90
25937;DHT22;13733;51.178;4.450;2023-10-31T03:02:32;11.50;99.90
25937;DHT22;13733;51.178;4.450;2023-10-31T03:04:58;11.50;99.90
25937;DHT22;13733;51.178;4.450;2023-10-31T03:07:23;11.50;99.90
25937;DHT22;13733;51.178;4.450;2023-10-31T03:09:49;11.50;99.90
25937;DHT22;13733;51.178;4.450;2023-10-31T03:12:15;11.40;99.90
25937;DHT22;13733;51.178;4.450;2023-10-31T03:14:42;11.40;99.90
25937;DHT22;13733;51.178;4.450;2023-10-31T03:17:08;11.50;99.90
25937;DHT22;13733;51.178;4.450;2023-10-31T03:19:33;11.50;99.90
25937;DHT22;13733;51.178;4.450;2023-10-31T03:21:59;11.40;99.90
25937;DHT22;13733;51.178;4.450;2023-10-31T03:24:25;11.60;99.90
25937;DHT22;13733;51.178;4.450;2023-10-31T03:26:50;11.60;99.90
25937;DHT22;13733;51.178;4.450;2023-10-31T03:29:16;11.60;99.90
25937;DHT22;13733;51.178;4.450;2023-10-31T03:31:42;11.50;99.90
25937;DHT22;13733;51.178;4.450;2023-10-31T03:34:08;11.30;99.90
25937;DHT22;13733;51.178;4.450;2023-10-31T03:36:35;11.40;99.90
25937;DHT22;13733;51.178;4.450;2023-10-31T03:39:00;11.50;99.90
25937;DHT22;13733;51.178;4.450;2023-10-31T03:41:26;11.40;99.90
25937;DHT22;13733;51.178;4.450;2023-10-31T03:43:52;11.30;99.90
25937;DHT22;13733;51.178;4.450;2023-10-31T03:46:18;11.20;99.90
25937;DHT22;13733;51.178;4.450;2023-10-31T03:48:43;11.00;99.90
25937;DHT22;13733;51.178;4.450;2023-10-31T03:51:09;11.10;99.90
25937;DHT22;13733;51.178;4.450;2023-10-31T03:53:35;11.10;99.90
25937;DHT22;13733;51.178;4.450;2023-10-31T03:56:01;11.10;99.90
25937;DHT22;13733;51.178;4.450;2023-10-31T03:58:27;11.00;99.90
25937;DHT22;13733;51.178;4.450;2023-10-31T04:00:53;10.90;99.90
25937;DHT22;13733;51.178;4.450;2023-10-31T04:03:18;11.00;99.90
25937;DHT22;13733;51.178;4.450;2023-10-31T04:05:44;11.00;99.90
25937;DHT22;13733;51.178;4.450;2023-10-31T04:08:10;11.10;99.90
25937;DHT22;13733;51.178;4.450;2023-10-31T04:10:36;11.10;99.90
25937;DHT22;13733;51.178;4.450;2023-10-31T04:13:02;11.10;99.90
25937;DHT22;13733;51.178;4.450;2023-10-31T04:15:28;11.10;99.90
25937;DHT22;13733;51.178;4.450;2023-10-31T04:17:53;11.10;99.90
25937;DHT22;13733;51.178;4.450;2023-10-31T04:20:19;11.10;99.90
25937;DHT22;13733;51.178;4.450;2023-10-31T04:22:45;11.00;99.90
25937;DHT22;13733;51.178;4.450;2023-10-31T04:25:11;11.00;99.90
25937;DHT22;13733;51.178;4.450;2023-10-31T04:27:37;11.00;99.90
25937;DHT22;13733;51.178;4.450;2023-10-31T04:30:03;11.00;99.90
25937;DHT22;13733;51.178;4.450;2023-10-31T04:32:28;10.90;99.90
25937;DHT22;13733;51.178;4.450;2023-10-31T04:34:55;10.90;99.90
25937;DHT22;13733;51.178;4.450;2023-10-31T04:37:20;11.00;99.90
25937;DHT22;13733;51.178;4.450;2023-10-31T04:39:46;10.90;99.90
25937;DHT22;13733;51.178;4.450;2023-10-31T04:42:12;11.00;99.90
25937;DHT22;13733;51.178;4.450;2023-10-31T04:44:37;11.00;99.90
25937;DHT22;13733;51.178;4.450;2023-10-31T04:47:03;10.90;99.90
25937;DHT22;13733;51.178;4.450;2023-10-31T04:49:29;10.90;99.90
25937;DHT22;13733;51.178;4.450;2023-10-31T04:51:55;10.80;99.90
25937;DHT22;13733;51.178;4.450;2023-10-31T04:54:20;10.90;99.90
25937;DHT22;13733;51.178;4.450;2023-10-31T04:56:47;10.80;99.90
25937;DHT22;13733;51.178;4.450;2023-10-31T04:59:13;10.70;99.90
25937;DHT22;13733;51.178;4.450;2023-10-31T05:01:39;10.70;99.90
25937;DHT22;13733;51.178;4.450;2023-10-31T05:04:04;10.80;99.90
25937;DHT22;13733;51.178;4.450;2023-10-31T05:06:30;10.90;99.90
25937;DHT22;13733;51.178;4.450;2023-10-31T05:08:56;11.00;99.90
25937;DHT22;13733;51.178;4.450;2023-10-31T05:11:22;11.10;99.90
25937;DHT22;13733;51.178;4.450;2023-10-31T05:13:47;11.00;99.90
25937;DHT22;13733;51.178;4.450;2023-10-31T05:16:13;10.80;99.90
25937;DHT22;13733;51.178;4.450;2023-10-31T05:18:39;10.70;99.90
25937;DHT22;13733;51.178;4.450;2023-10-31T05:21:05;10.60;99.90
25937;DHT22;13733;51.178;4.450;2023-10-31T05:23:31;10.60;99.90
25937;DHT22;13733;51.178;4.450;2023-10-31T05:25:56;10.60;99.90
25937;DHT22;13733;51.178;4.450;2023-10-31T05:28:22;10.80;99.90
25937;DHT22;13733;51.178;4.450;2023-10-31T05:30:49;10.90;99.90
25937;DHT22;13733;51.178;4.450;2023-10-31T05:33:15;11.00;99.90
25937;DHT22;13733;51.178;4.450;2023-10-31T05:35:41;10.90;99.90
25937;DHT22;13733;51.178;4.450;2023-10-31T05:38:07;11.10;99.90
25937;DHT22;13733;51.178;4.450;2023-10-31T05:40:33;11.00;99.90
25937;DHT22;13733;51.178;4.450;2023-10-31T05:43:01;11.10;99.90
25937;DHT22;13733;51.178;4.450;2023-10-31T05:45:28;10.90;99.90
25937;DHT22;13733;51.178;4.450;2023-10-31T05:47:54;10.80;99.90
25937;DHT22;13733;51.178;4.450;2023-10-31T05:50:20;10.70;99.90
25937;DHT22;13733;51.178;4.450;2023-10-31T05:52:46;10.60;99.90
25937;DHT22;13733;51.178;4.450;2023-10-31T05:55:13;10.50;99.90
25937;DHT22;13733;51.178;4.450;2023-10-31T05:57:39;10.60;99.90
25937;DHT22;13733;51.178;4.450;2023-10-31T06:00:06;10.50;99.90
25937;DHT22;13733;51.178;4.450;2023-10-31T06:02:37;10.40;99.90
25937;DHT22;13733;51.178;4.450;2023-10-31T06:05:04;10.50;99.90
25937;DHT22;13733;51.178;4.450;2023-10-31T06:07:29;10.50;99.90
25937;DHT22;13733;51.178;4.450;2023-10-31T06:09:55;10.50;99.90
25937;DHT22;13733;51.178;4.450;2023-10-31T06:12:21;10.60;99.90
25937;DHT22;13733;51.178;4.450;2023-10-31T06:14:47;10.50;99.90
25937;DHT22;13733;51.178;4.450;2023-10-31T06:17:13;10.40;99.90
25937;DHT22;13733;51.178;4.450;2023-10-31T06:19:38;10.40;99.90
25937;DHT22;13733;51.178;4.450;2023-10-31T06:22:10;10.30;99.90
25937;DHT22;13733;51.178;4.450;2023-10-31T06:24:36;10.40;99.90
25937;DHT22;13733;51.178;4.450;2023-10-31T06:27:02;10.60;99.90
25937;DHT22;13733;51.178;4.450;2023-10-31T06:29:28;10.50;99.90
25937;DHT22;13733;51.178;4.450;2023-10-31T06:31:54;10.40;99.90
25937;DHT22;13733;51.178;4.450;2023-10-31T06:34:20;10.40;99.90
25937;DHT22;13733;51.178;4.450;2023-10-31T06:36:45;10.50;99.90
25937;DHT22;13733;51.178;4.450;2023-10-31T06:39:11;10.60;99.90
25937;DHT22;13733;51.178;4.450;2023-10-31T06:41:37;10.60;99.90
25937;DHT22;13733;51.178;4.450;2023-10-31T06:44:03;10.50;99.90
25937;DHT22;13733;51.178;4.450;2023-10-31T06:46:29;10.40;99.90
25937;DHT22;13733;51.178;4.450;2023-10-31T06:48:55;10.40;99.90
25937;DHT22;13733;51.178;4.450;2023-10-31T06:51:21;10.50;99.90
25937;DHT22;13733;51.178;4.450;2023-10-31T06:53:47;10.70;99.90
25937;DHT22;13733;51.178;4.450;2023-10-31T06:56:13;10.70;99.90
25937;DHT22;13733;51.178;4.450;2023-10-31T06:58:38;10.70;99.90
25937;DHT22;13733;51.178;4.450;2023-10-31T07:01:04;10.70;99.90
25937;DHT22;13733;51.178;4.450;2023-10-31T07:03:30;10.70;99.90
25937;DHT22;13733;51.178;4.450;2023-10-31T07:05:56;10.70;99.90
25937;DHT22;13733;51.178;4.450;2023-10-31T07:08:22;10.70;99.90
25937;DHT22;13733;51.178;4.450;2023-10-31T07:10:48;10.70;99.90
25937;DHT22;13733;51.178;4.450;2023-10-31T07:13:15;10.70;99.90
25937;DHT22;13733;51.178;4.450;2023-10-31T07:15:42;10.70;99.90
25937;DHT22;13733;51.178;4.450;2023-10-31T07:18:08;10.60;99.90
25937;DHT22;13733;51.178;4.450;2023-10-31T07:20:33;10.60;99.90
25937;DHT22;13733;51.178;4.450;2023-10-31T07:22:59;10.60;99.90
25937;DHT22;13733;51.178;4.450;2023-10-31T07:25:25;10.70;99.90
25937;DHT22;13733;51.178;4.450;2023-10-31T07:27:51;10.60;99.90
25937;DHT22;13733;51.178;4.450;2023-10-31T07:30:16;10.70;99.90
25937;DHT22;13733;51.178;4.450;2023-10-31T07:32:42;10.80;99.90
25937;DHT22;13733;51.178;4.450;2023-10-31T07:35:08;10.80;99.90
25937;DHT22;13733;51.178;4.450;2023-10-31T07:37:34;11.00;99.90
25937;DHT22;13733;51.178;4.450;2023-10-31T07:39:59;10.70;99.90
25937;DHT22;13733;51.178;4.450;2023-10-31T07:42:25;10.60;99.90
25937;DHT22;13733;51.178;4.450;2023-10-31T07:44:51;10.80;99.90
25937;DHT22;13733;51.178;4.450;2023-10-31T07:47:16;10.90;99.90
25937;DHT22;13733;51.178;4.450;2023-10-31T07:49:42;11.00;99.90
25937;DHT22;13733;51.178;4.450;2023-10-31T07:52:08;11.10;99.90
25937;DHT22;13733;51.178;4.450;2023-10-31T07:54:34;11.00;99.90
25937;DHT22;13733;51.178;4.450;2023-10-31T07:57:00;11.10;99.90
25937;DHT22;13733;51.178;4.450;2023-10-31T07:59:25;11.20;99.90
25937;DHT22;13733;51.178;4.450;2023-10-31T08:01:51;11.30;99.90
25937;DHT22;13733;51.178;4.450;2023-10-31T08:04:17;11.20;99.90
25937;DHT22;13733;51.178;4.450;2023-10-31T08:06:43;11.30;99.90
25937;DHT22;13733;51.178;4.450;2023-10-31T08:09:09;11.40;99.90
25937;DHT22;13733;51.178;4.450;2023-10-31T08:11:35;11.20;99.90
25937;DHT22;13733;51.178;4.450;2023-10-31T08:14:01;11.30;99.90
25937;DHT22;13733;51.178;4.450;2023-10-31T08:16:27;11.30;99.90
25937;DHT22;13733;51.178;4.450;2023-10-31T08:18:53;11.30;99.90
25937;DHT22;13733;51.178;4.450;2023-10-31T08:21:19;11.40;99.90
25937;DHT22;13733;51.178;4.450;2023-10-31T08:23:45;11.50;99.90
25937;DHT22;13733;51.178;4.450;2023-10-31T08:26:12;11.40;99.90
25937;DHT22;13733;51.178;4.450;2023-10-31T08:28:38;11.40;99.90
25937;DHT22;13733;51.178;4.450;2023-10-31T08:31:04;11.50;99.90
25937;DHT22;13733;51.178;4.450;2023-10-31T08:33:30;11.60;99.90
25937;DHT22;13733;51.178;4.450;2023-10-31T08:35:55;11.60;99.90
25937;DHT22;13733;51.178;4.450;2023-10-31T08:38:21;11.50;99.90
25937;DHT22;13733;51.178;4.450;2023-10-31T08:40:47;11.50;99.90
25937;DHT22;13733;51.178;4.450;2023-10-31T08:43:14;11.50;99.90
25937;DHT22;13733;51.178;4.450;2023-10-31T08:45:40;11.80;99.90
25937;DHT22;13733;51.178;4.450;2023-10-31T08:48:06;12.10;99.90
25937;DHT22;13733;51.178;4.450;2023-10-31T08:50:31;12.00;99.90
25937;DHT22;13733;51.178;4.450;2023-10-31T08:52:57;12.20;99.90
25937;DHT22;13733;51.178;4.450;2023-10-31T08:55:23;12.40;99.90
25937;DHT22;13733;51.178;4.450;2023-10-31T08:57:48;12.30;99.90
25937;DHT22;13733;51.178;4.450;2023-10-31T09:00:14;12.40;99.90
25937;DHT22;13733;51.178;4.450;2023-10-31T09:02:40;12.40;99.80
25937;DHT22;13733;51.178;4.450;2023-10-31T09:05:06;12.50;99.10
25937;DHT22;13733;51.178;4.450;2023-10-31T09:07:32;12.60;97.20
25937;DHT22;13733;51.178;4.450;2023-10-31T09:09:58;12.70;96.60
25937;DHT22;13733;51.178;4.450;2023-10-31T09:12:24;12.70;96.20
25937;DHT22;13733;51.178;4.450;2023-10-31T09:14:49;12.60;96.80
25937;DHT22;13733;51.178;4.450;2023-10-31T09:17:15;12.60;97.20
25937;DHT22;13733;51.178;4.450;2023-10-31T09:19:41;12.40;98.10
25937;DHT22;13733;51.178;4.450;2023-10-31T09:22:06;12.70;97.20
25937;DHT22;13733;51.178;4.450;2023-10-31T09:24:33;12.70;96.00
25937;DHT22;13733;51.178;4.450;2023-10-31T09:26:59;12.60;97.10
25937;DHT22;13733;51.178;4.450;2023-10-31T09:29:24;12.70;99.40
25937;DHT22;13733;51.178;4.450;2023-10-31T09:31:50;13.00;97.90
25937;DHT22;13733;51.178;4.450;2023-10-31T09:34:15;13.30;94.00
25937;DHT22;13733;51.178;4.450;2023-10-31T09:36:42;13.40;93.50
25937;DHT22;13733;51.178;4.450;2023-10-31T09:39:07;13.30;92.00
25937;DHT22;13733;51.178;4.450;2023-10-31T09:41:33;13.40;92.70
25937;DHT22;13733;51.178;4.450;2023-10-31T09:43:59;13.60;90.80
25937;DHT22;13733;51.178;4.450;2023-10-31T09:46:25;13.60;84.60
25937;DHT22;13733;51.178;4.450;2023-10-31T09:48:52;13.50;87.00
25937;DHT22;13733;51.178;4.450;2023-10-31T09:51:18;13.20;89.20
25937;DHT22;13733;51.178;4.450;2023-10-31T09:53:44;13.00;92.40
25937;DHT22;13733;51.178;4.450;2023-10-31T09:56:11;13.00;92.80
25937;DHT22;13733;51.178;4.450;2023-10-31T09:58:37;12.90;95.20
25937;DHT22;13733;51.178;4.450;2023-10-31T10:01:05;13.00;94.20
25937;DHT22;13733;51.178;4.450;2023-10-31T10:03:30;13.10;94.70
25937;DHT22;13733;51.178;4.450;2023-10-31T10:05:57;13.30;91.60
25937;DHT22;13733;51.178;4.450;2023-10-31T10:08:23;13.60;90.60
25937;DHT22;13733;51.178;4.450;2023-10-31T10:10:50;13.70;82.60
25937;DHT22;13733;51.178;4.450;2023-10-31T10:13:22;14.00;80.10
25937;DHT22;13733;51.178;4.450;2023-10-31T10:15:49;13.80;78.60
25937;DHT22;13733;51.178;4.450;2023-10-31T10:18:31;13.60;85.20
25937;DHT22;13733;51.178;4.450;2023-10-31T10:21:00;13.80;80.30
25937;DHT22;13733;51.178;4.450;2023-10-31T10:23:27;13.70;82.60
25937;DHT22;13733;51.178;4.450;2023-10-31T10:25:54;13.60;79.70
25937;DHT22;13733;51.178;4.450;2023-10-31T10:28:20;13.60;84.80
25937;DHT22;13733;51.178;4.450;2023-10-31T10:30:49;13.90;78.90
25937;DHT22;13733;51.178;4.450;2023-10-31T10:33:15;13.90;77.60
25937;DHT22;13733;51.178;4.450;2023-10-31T10:35:42;14.10;76.20
25937;DHT22;13733;51.178;4.450;2023-10-31T10:38:14;14.10;73.10
25937;DHT22;13733;51.178;4.450;2023-10-31T10:40:41;14.50;66.30
25937;DHT22;13733;51.178;4.450;2023-10-31T10:43:12;14.30;64.50
25937;DHT22;13733;51.178;4.450;2023-10-31T10:45:42;14.50;66.40
25937;DHT22;13733;51.178;4.450;2023-10-31T10:48:13;14.50;62.50
25937;DHT22;13733;51.178;4.450;2023-10-31T10:50:43;14.30;67.50
25937;DHT22;13733;51.178;4.450;2023-10-31T10:53:23;14.20;71.20
25937;DHT22;13733;51.178;4.450;2023-10-31T10:56:00;14.10;67.80
25937;DHT22;13733;51.178;4.450;2023-10-31T10:58:51;14.10;67.60
25937;DHT22;13733;51.178;4.450;2023-10-31T11:01:19;14.00;67.90
25937;DHT22;13733;51.178;4.450;2023-10-31T11:03:46;14.10;70.80
25937;DHT22;13733;51.178;4.450;2023-10-31T11:06:12;14.00;73.30
25937;DHT22;13733;51.178;4.450;2023-10-31T11:08:39;13.90;77.30
25937;DHT22;13733;51.178;4.450;2023-10-31T11:11:05;13.70;81.60
25937;DHT22;13733;51.178;4.450;2023-10-31T11:13:32;13.70;82.20
25937;DHT22;13733;51.178;4.450;2023-10-31T11:16:03;13.70;80.60
25937;DHT22;13733;51.178;4.450;2023-10-31T11:18:30;13.80;78.60
25937;DHT22;13733;51.178;4.450;2023-10-31T11:20:56;14.10;78.90
25937;DHT22;13733;51.178;4.450;2023-10-31T11:23:21;14.20;66.30
25937;DHT22;13733;51.178;4.450;2023-10-31T11:25:50;14.20;63.20
25937;DHT22;13733;51.178;4.450;2023-10-31T11:28:19;14.30;55.50
25937;DHT22;13733;51.178;4.450;2023-10-31T11:30:47;14.30;58.60
25937;DHT22;13733;51.178;4.450;2023-10-31T11:33:16;14.20;59.60
25937;DHT22;13733;51.178;4.450;2023-10-31T11:35:42;14.20;58.40
25937;DHT22;13733;51.178;4.450;2023-10-31T11:38:10;14.10;62.80
25937;DHT22;13733;51.178;4.450;2023-10-31T11:41:02;14.00;61.50
25937;DHT22;13733;51.178;4.450;2023-10-31T11:46:05;13.60;79.70
25937;DHT22;13733;51.178;4.450;2023-10-31T11:48:50;13.40;78.20
25937;DHT22;13733;51.178;4.450;2023-10-31T11:51:17;13.50;82.80
25937;DHT22;13733;51.178;4.450;2023-10-31T11:53:43;13.60;74.20
25937;DHT22;13733;51.178;4.450;2023-10-31T11:56:18;13.30;75.10
25937;DHT22;13733;51.178;4.450;2023-10-31T11:58:44;13.30;79.30
25937;DHT22;13733;51.178;4.450;2023-10-31T12:01:10;13.40;77.20
25937;DHT22;13733;51.178;4.450;2023-10-31T12:03:41;13.40;70.60
25937;DHT22;13733;51.178;4.450;2023-10-31T12:06:08;13.40;78.20
25937;DHT22;13733;51.178;4.450;2023-10-31T12:08:39;13.40;80.30
25937;DHT22;13733;51.178;4.450;2023-10-31T12:11:16;13.40;81.70
25937;DHT22;13733;51.178;4.450;2023-10-31T12:13:53;13.50;78.40
25937;DHT22;13733;51.178;4.450;2023-10-31T12:16:26;13.50;79.40
25937;DHT22;13733;51.178;4.450;2023-10-31T12:19:00;13.30;82.30
25937;DHT22;13733;51.178;4.450;2023-10-31T12:21:44;13.10;90.20
25937;DHT22;13733;51.178;4.450;2023-10-31T12:24:13;13.10;91.70
25937;DHT22;13733;51.178;4.450;2023-10-31T12:26:40;13.10;92.00
25937;DHT22;13733;51.178;4.450;2023-10-31T12:29:16;13.10;91.20
25937;DHT22;13733;51.178;4.450;2023-10-31T12:31:50;12.80;93.10
25937;DHT22;13733;51.178;4.450;2023-10-31T12:34:22;12.60;96.40
25937;DHT22;13733;51.178;4.450;2023-10-31T12:36:48;12.60;97.70
25937;DHT22;13733;51.178;4.450;2023-10-31T12:39:15;12.50;99.40
25937;DHT22;13733;51.178;4.450;2023-10-31T12:41:42;12.20;99.90
25937;DHT22;13733;51.178;4.450;2023-10-31T12:44:09;12.10;99.90
25937;DHT22;13733;51.178;4.450;2023-10-31T12:46:39;12.00;99.90
25937;DHT22;13733;51.178;4.450;2023-10-31T12:49:11;11.90;99.90
25937;DHT22;13733;51.178;4.450;2023-10-31T12:51:38;11.90;99.90
25937;DHT22;13733;51.178;4.450;2023-10-31T12:54:04;12.00;99.90
25937;DHT22;13733;51.178;4.450;2023-10-31T12:56:40;12.10;99.90
25937;DHT22;13733;51.178;4.450;2023-10-31T12:59:07;12.10;99.90
25937;DHT22;13733;51.178;4.450;2023-10-31T13:01:36;12.10;99.90
25937;DHT22;13733;51.178;4.450;2023-10-31T13:04:05;12.10;99.90
25937;DHT22;13733;51.178;4.450;2023-10-31T13:06:32;12.10;99.90
25937;DHT22;13733;51.178;4.450;2023-10-31T13:08:58;12.10;99.90
25937;DHT22;13733;51.178;4.450;2023-10-31T13:11:26;12.10;99.90
25937;DHT22;13733;51.178;4.450;2023-10-31T13:13:54;12.10;99.90
25937;DHT22;13733;51.178;4.450;2023-10-31T13:16:19;12.10;99.90
25937;DHT22;13733;51.178;4.450;2023-10-31T13:18:45;12.20;99.90
25937;DHT22;13733;51.178;4.450;2023-10-31T13:21:11;12.30;99.90
25937;DHT22;13733;51.178;4.450;2023-10-31T13:23:42;12.40;99.90
25937;DHT22;13733;51.178;4.450;2023-10-31T13:26:11;12.40;99.90
25937;DHT22;13733;51.178;4.450;2023-10-31T13:28:38;12.50;99.90
25937;DHT22;13733;51.178;4.450;2023-10-31T13:31:05;12.60;99.90
25937;DHT22;13733;51.178;4.450;2023-10-31T13:33:34;12.70;99.90
25937;DHT22;13733;51.178;4.450;2023-10-31T13:36:00;12.80;99.90
25937;DHT22;13733;51.178;4.450;2023-10-31T13:38:26;12.70;99.90
25937;DHT22;13733;51.178;4.450;2023-10-31T13:40:52;12.60;99.90
25937;DHT22;13733;51.178;4.450;2023-10-31T13:43:17;12.50;99.90
25937;DHT22;13733;51.178;4.450;2023-10-31T13:45:43;12.50;99.90
25937;DHT22;13733;51.178;4.450;2023-10-31T13:48:11;12.60;99.90
25937;DHT22;13733;51.178;4.450;2023-10-31T13:50:38;12.60;99.90
25937;DHT22;13733;51.178;4.450;2023-10-31T13:53:04;12.50;99.90
25937;DHT22;13733;51.178;4.450;2023-10-31T13:55:33;12.40;99.90
25937;DHT22;13733;51.178;4.450;2023-10-31T13:57:58;12.40;99.90
25937;DHT22;13733;51.178;4.450;2023-10-31T14:00:24;12.60;99.90
25937;DHT22;13733;51.178;4.450;2023-10-31T14:02:50;12.80;99.90
25937;DHT22;13733;51.178;4.450;2023-10-31T14:05:15;12.90;99.90
25937;DHT22;13733;51.178;4.450;2023-10-31T14:07:41;13.00;99.90
25937;DHT22;13733;51.178;4.450;2023-10-31T14:10:08;13.20;99.90
25937;DHT22;13733;51.178;4.450;2023-10-31T14:12:33;13.40;99.90
25937;DHT22;13733;51.178;4.450;2023-10-31T14:14:59;13.50;99.90
25937;DHT22;13733;51.178;4.450;2023-10-31T14:17:25;14.00;99.90
25937;DHT22;13733;51.178;4.450;2023-10-31T14:19:51;14.30;99.90
25937;DHT22;13733;51.178;4.450;2023-10-31T14:22:17;14.60;96.10
25937;DHT22;13733;51.178;4.450;2023-10-31T14:24:43;14.60;92.00
25937;DHT22;13733;51.178;4.450;2023-10-31T14:27:09;14.60;92.30
25937;DHT22;13733;51.178;4.450;2023-10-31T14:29:35;14.50;93.80
25937;DHT22;13733;51.178;4.450;2023-10-31T14:32:07;14.50;90.90
25937;DHT22;13733;51.178;4.450;2023-10-31T14:34:33;14.50;89.70
25937;DHT22;13733;51.178;4.450;2023-10-31T14:36:59;14.40;91.90
25937;DHT22;13733;51.178;4.450;2023-10-31T14:39:25;14.30;93.70
25937;DHT22;13733;51.178;4.450;2023-10-31T14:41:50;14.40;94.50
25937;DHT22;13733;51.178;4.450;2023-10-31T14:44:16;14.50;92.10
25937;DHT22;13733;51.178;4.450;2023-10-31T14:46:42;14.30;92.90
25937;DHT22;13733;51.178;4.450;2023-10-31T14:49:07;14.30;92.00
25937;DHT22;13733;51.178;4.450;2023-10-31T14:51:35;13.90;95.60
25937;DHT22;13733;51.178;4.450;2023-10-31T14:54:01;13.80;96.30
25937;DHT22;13733;51.178;4.450;2023-10-31T14:56:27;14.00;95.80
25937;DHT22;13733;51.178;4.450;2023-10-31T14:58:55;14.00;96.40
25937;DHT22;13733;51.178;4.450;2023-10-31T15:01:20;15.00;97.50
25937;DHT22;13733;51.178;4.450;2023-10-31T15:03:46;16.50;83.50
25937;DHT22;13733;51.178;4.450;2023-10-31T15:06:12;17.90;28.10
25937;DHT22;13733;51.178;4.450;2023-10-31T15:08:40;18.30;1.00
25937;DHT22;13733;51.178;4.450;2023-10-31T15:11:06;17.70;1.00
25937;DHT22;13733;51.178;4.450;2023-10-31T15:13:33;17.10;10.60
25937;DHT22;13733;51.178;4.450;2023-10-31T15:15:59;16.40;31.70
25937;DHT22;13733;51.178;4.450;2023-10-31T15:18:25;16.00;43.70
25937;DHT22;13733;51.178;4.450;2023-10-31T15:20:50;15.50;54.70
25937;DHT22;13733;51.178;4.450;2023-10-31T15:23:16;15.10;63.60
25937;DHT22;13733;51.178;4.450;2023-10-31T15:25:42;14.90;72.50
25937;DHT22;13733;51.178;4.450;2023-10-31T15:28:08;14.60;81.40
25937;DHT22;13733;51.178;4.450;2023-10-31T15:30:34;14.60;80.60